Time;durP1;ratioP1;P1;durP2;ratioP2;P2;SDS_P1;SDS_P2;PMS_P1;PMS_P2;Temp;Humidity;BMP_temperature;BMP_pressure;BME280_temperature;BME280_humidity;BME280_pressure;Samples;Min_cycle;Max_cycle;Signal;HPM_P1;HPM_P2
2021/11/18 00:00:51;;;;;;;47.42;28.73;;;9.30;99.90;;;;;;4943479;29;20039;-81
2021/11/18 00:03:22;;;;;;;47.47;27.88;;;9.30;99.90;;;;;;4953722;29;20039;-83
2021/11/18 00:05:50;;;;;;;44.72;29.02;;;9.40;99.90;;;;;;4952915;29;20491;-80
2021/11/18 00:08:18;;;;;;;47.63;28.80;;;9.40;99.90;;;;;;4953813;29;20247;-80
2021/11/18 00:10:52;;;;;;;41.78;27.52;;;9.20;99.90;;;;;;4952824;29;20458;-80
2021/11/18 00:13:27;;;;;;;45.65;28.23;;;9.10;99.90;;;;;;4952604;29;20487;-81
2021/11/18 00:15:55;;;;;;;44.35;25.00;;;9.20;99.90;;;;;;4952566;29;20447;-81
2021/11/18 00:18:26;;;;;;;37.05;25.55;;;9.20;99.90;;;;;;4952895;29;20047;-82
2021/11/18 00:20:57;;;;;;;37.15;25.05;;;9.00;99.90;;;;;;4952179;28;20062;-83
2021/11/18 00:23:29;;;;;;;38.78;25.05;;;9.10;99.90;;;;;;4952358;29;20510;-82
2021/11/18 00:25:56;;;;;;;39.03;24.08;;;9.10;99.90;;;;;;4952609;29;20053;-80
2021/11/18 00:28:24;;;;;;;46.10;25.25;;;9.20;99.90;;;;;;4952453;29;20130;-80
2021/11/18 00:30:51;;;;;;;40.08;24.17;;;9.20;99.90;;;;;;4953804;29;20054;-84
2021/11/18 00:33:20;;;;;;;43.40;25.80;;;9.20;99.90;;;;;;4963013;28;20086;-82
2021/11/18 00:35:48;;;;;;;40.42;24.27;;;9.30;99.90;;;;;;4973534;28;20043;-80
2021/11/18 00:38:17;;;;;;;42.60;26.10;;;9.20;99.90;;;;;;4969526;28;20065;-81
2021/11/18 00:40:49;;;;;;;43.17;27.27;;;9.20;99.90;;;;;;4968927;28;20059;-80
2021/11/18 00:43:17;;;;;;;40.10;25.98;;;9.10;99.90;;;;;;4953275;28;20053;-80
2021/11/18 00:45:45;;;;;;;45.20;26.58;;;9.10;99.90;;;;;;4953519;29;20048;-83
2021/11/18 00:48:14;;;;;;;47.75;28.05;;;9.20;99.90;;;;;;4953556;29;20094;-83
2021/11/18 00:50:47;;;;;;;49.67;28.38;;;9.10;99.90;;;;;;4953479;29;20506;-83
2021/11/18 00:53:41;;;;;;;41.13;27.38;;;8.90;99.90;;;;;;4953742;29;20070;-85
2021/11/18 00:56:08;;;;;;;46.22;28.30;;;9.00;99.90;;;;;;4953435;29;20451;-83
2021/11/18 00:58:36;;;;;;;43.15;27.65;;;9.10;99.90;;;;;;4953259;29;20039;-80
2021/11/18 01:01:04;;;;;;;47.72;28.30;;;9.10;99.90;;;;;;4953318;29;20411;-82
2021/11/18 01:03:32;;;;;;;45.15;28.27;;;9.10;99.90;;;;;;4953241;29;20127;-80
2021/11/18 01:06:00;;;;;;;42.92;27.60;;;9.20;99.90;;;;;;4953402;29;20047;-84
2021/11/18 01:08:28;;;;;;;47.13;27.60;;;9.10;99.90;;;;;;4953274;29;20539;-84
2021/11/18 01:11:10;;;;;;;47.20;27.30;;;9.10;99.90;;;;;;4953660;29;20122;-81
2021/11/18 01:13:39;;;;;;;42.47;27.65;;;9.10;99.90;;;;;;4953629;29;20102;-83
2021/11/18 01:16:09;;;;;;;46.75;26.85;;;9.10;99.90;;;;;;4955108;29;20043;-82
2021/11/18 01:18:36;;;;;;;41.10;26.60;;;9.00;99.90;;;;;;4953350;29;20054;-83
2021/11/18 01:21:05;;;;;;;44.33;27.70;;;9.10;99.90;;;;;;4953550;28;20383;-80
2021/11/18 01:23:35;;;;;;;42.17;26.25;;;9.20;99.90;;;;;;4936856;29;20047;-83
2021/11/18 01:26:08;;;;;;;41.92;27.10;;;9.10;99.90;;;;;;4952757;29;20047;-83
2021/11/18 01:28:35;;;;;;;41.25;24.65;;;9.10;99.90;;;;;;4936087;29;20377;-83
2021/11/18 01:31:04;;;;;;;43.55;26.30;;;9.20;99.90;;;;;;4952401;29;20054;-84
2021/11/18 01:33:32;;;;;;;46.50;27.48;;;9.30;99.90;;;;;;4955577;28;20094;-80
2021/11/18 01:35:59;;;;;;;39.35;25.67;;;9.10;99.90;;;;;;4956923;29;20035;-83
2021/11/18 01:38:31;;;;;;;39.80;25.38;;;9.10;99.90;;;;;;4954608;29;20422;-80
2021/11/18 01:41:01;;;;;;;41.03;25.48;;;9.20;99.90;;;;;;4950920;29;20047;-80
2021/11/18 01:43:33;;;;;;;44.83;25.48;;;9.10;99.90;;;;;;4956604;29;20057;-81
2021/11/18 01:46:04;;;;;;;39.40;24.73;;;9.10;99.90;;;;;;4956329;29;20122;-80
2021/11/18 01:48:32;;;;;;;41.35;24.65;;;9.10;99.90;;;;;;4937229;29;20043;-80
2021/11/18 01:51:01;;;;;;;36.25;23.70;;;9.20;99.90;;;;;;4917146;29;20058;-79
2021/11/18 01:53:36;;;;;;;37.90;25.02;;;9.10;99.90;;;;;;4936390;29;20408;-79
2021/11/18 01:56:08;;;;;;;40.47;25.23;;;9.10;99.90;;;;;;4920437;29;20139;-78
2021/11/18 01:58:37;;;;;;;35.50;25.00;;;9.10;99.90;;;;;;4936078;29;20490;-81
2021/11/18 02:01:06;;;;;;;39.03;23.42;;;9.10;99.90;;;;;;4919908;29;20047;-79
2021/11/18 02:03:35;;;;;;;41.45;25.35;;;9.20;99.90;;;;;;4936728;29;20512;-80
2021/11/18 02:06:10;;;;;;;38.50;25.77;;;9.10;99.90;;;;;;4936927;29;20039;-80
2021/11/18 02:08:37;;;;;;;34.95;24.83;;;9.10;99.90;;;;;;4935648;29;20399;-83
2021/11/18 02:11:22;;;;;;;41.22;25.83;;;9.10;99.90;;;;;;4936740;29;20067;-78
2021/11/18 02:13:50;;;;;;;38.33;24.70;;;9.10;99.90;;;;;;4936610;29;20043;-84
2021/11/18 02:16:18;;;;;;;40.17;25.08;;;9.10;99.90;;;;;;4937016;29;20405;-79
2021/11/18 02:18:45;;;;;;;36.60;24.25;;;9.20;99.90;;;;;;4935996;29;20051;-79
2021/11/18 02:21:15;;;;;;;38.72;23.40;;;9.20;99.90;;;;;;4936637;29;20387;-77
2021/11/18 02:23:47;;;;;;;35.28;22.75;;;9.10;99.90;;;;;;4936576;29;20043;-79
2021/11/18 02:26:15;;;;;;;36.38;21.75;;;9.10;99.90;;;;;;4919563;29;20055;-78
2021/11/18 02:28:45;;;;;;;35.42;21.83;;;9.10;99.90;;;;;;4935590;29;20048;-82
2021/11/18 02:31:22;;;;;;;35.40;22.10;;;9.00;99.90;;;;;;4936636;29;20122;-80
2021/11/18 02:33:50;;;;;;;34.53;21.33;;;8.90;99.90;;;;;;4919524;29;20294;-78
2021/11/18 02:36:18;;;;;;;30.52;20.63;;;9.00;99.90;;;;;;4936603;29;20040;-78
2021/11/18 02:38:46;;;;;;;33.53;21.45;;;9.00;99.90;;;;;;4933594;29;20046;-81
2021/11/18 02:41:15;;;;;;;29.08;19.98;;;9.10;99.90;;;;;;4916450;29;20063;-81
2021/11/18 02:43:43;;;;;;;31.15;21.23;;;9.10;99.90;;;;;;4919085;29;20503;-81
2021/11/18 02:46:10;;;;;;;36.42;22.60;;;9.10;99.90;;;;;;4936243;28;20067;-82
2021/11/18 02:48:39;;;;;;;38.03;22.65;;;9.20;99.90;;;;;;4938396;29;20051;-80
2021/11/18 02:51:09;;;;;;;35.78;20.90;;;9.00;99.90;;;;;;4938704;29;20043;-78
2021/11/18 02:53:38;;;;;;;30.77;21.00;;;9.00;99.90;;;;;;4955106;29;20047;-78
2021/11/18 02:56:07;;;;;;;32.63;21.27;;;9.00;99.90;;;;;;4938375;29;20043;-80
2021/11/18 02:58:34;;;;;;;35.13;20.15;;;9.10;99.90;;;;;;4955133;29;20051;-80
2021/11/18 03:01:17;;;;;;;28.73;18.52;;;9.10;99.90;;;;;;4955131;29;20422;-80
2021/11/18 03:03:45;;;;;;;26.35;17.65;;;9.00;99.90;;;;;;4955465;29;20204;-80
2021/11/18 03:06:13;;;;;;;29.40;18.75;;;8.80;99.90;;;;;;4954087;29;20071;-80
2021/11/18 03:08:45;;;;;;;30.80;18.98;;;8.80;99.90;;;;;;4938056;29;20704;-81
2021/11/18 03:11:13;;;;;;;29.38;18.25;;;8.80;99.90;;;;;;4955295;29;20126;-80
2021/11/18 03:13:40;;;;;;;33.60;18.20;;;8.80;99.90;;;;;;4937806;29;20138;-80
2021/11/18 03:16:09;;;;;;;25.80;17.80;;;8.80;99.90;;;;;;4953980;29;20039;-81
2021/11/18 03:18:38;;;;;;;25.73;16.92;;;8.80;99.90;;;;;;4954928;29;20090;-79
2021/11/18 03:21:09;;;;;;;27.20;17.70;;;8.80;99.90;;;;;;4955265;28;20559;-79
2021/11/18 03:23:37;;;;;;;27.08;16.27;;;8.70;99.90;;;;;;4937221;29;20050;-79
2021/11/18 03:26:06;;;;;;;24.52;17.52;;;8.60;99.90;;;;;;4954807;29;20039;-79
2021/11/18 03:28:34;;;;;;;25.35;16.42;;;8.60;99.90;;;;;;4937286;29;20061;-82
2021/11/18 03:31:04;;;;;;;28.33;17.00;;;8.60;99.90;;;;;;4955280;29;20122;-82
2021/11/18 03:33:42;;;;;;;25.15;17.33;;;8.70;99.90;;;;;;4954778;29;20043;-81
2021/11/18 03:36:10;;;;;;;23.92;16.88;;;8.80;99.90;;;;;;4954952;29;20103;-80
2021/11/18 03:38:39;;;;;;;24.30;15.80;;;8.80;99.90;;;;;;4954367;29;20770;-80
2021/11/18 03:41:07;;;;;;;22.08;16.40;;;8.80;99.90;;;;;;4955027;29;20035;-82
2021/11/18 03:43:40;;;;;;;24.40;16.48;;;8.70;99.90;;;;;;4954798;29;20475;-79
2021/11/18 03:46:09;;;;;;;23.88;16.05;;;8.60;99.90;;;;;;4954689;29;20130;-79
2021/11/18 03:48:37;;;;;;;25.95;17.83;;;8.70;99.90;;;;;;4944961;29;20083;-77
2021/11/18 03:51:07;;;;;;;24.25;16.15;;;8.80;99.90;;;;;;4953650;29;20073;-80
2021/11/18 03:53:35;;;;;;;22.92;15.93;;;8.70;99.90;;;;;;4954515;28;20122;-80
2021/11/18 03:56:06;;;;;;;23.73;16.15;;;8.80;99.90;;;;;;4949108;28;20134;-81
2021/11/18 03:58:33;;;;;;;;;;;8.90;99.90;;;;;;4954803;29;20178;-80
2021/11/18 04:01:01;;;;;;;22.77;15.35;;;8.80;99.90;;;;;;4953442;29;19930;-80
2021/11/18 04:03:29;;;;;;;25.83;16.52;;;8.70;99.90;;;;;;4953065;29;20051;-79
2021/11/18 04:05:57;;;;;;;22.35;16.35;;;8.70;99.90;;;;;;4954525;29;20039;-81
2021/11/18 04:08:24;;;;;;;26.75;16.13;;;8.70;99.90;;;;;;4952649;29;20089;-79
2021/11/18 04:10:52;;;;;;;23.13;15.52;;;8.80;99.90;;;;;;4954235;29;20122;-80
2021/11/18 04:13:19;;;;;;;24.67;16.52;;;8.80;99.90;;;;;;4952927;29;20431;-80
2021/11/18 04:15:49;;;;;;;23.17;16.55;;;8.80;99.90;;;;;;4954138;29;20112;-82
2021/11/18 04:18:19;;;;;;;28.30;16.63;;;8.80;99.90;;;;;;4953825;29;20043;-79
2021/11/18 04:20:49;;;;;;;22.98;16.15;;;8.80;99.90;;;;;;4952712;28;20047;-80
2021/11/18 04:23:18;;;;;;;26.13;17.67;;;8.80;99.90;;;;;;4953144;29;20058;-85
2021/11/18 04:25:46;;;;;;;28.20;16.95;;;8.80;99.90;;;;;;4952892;29;20123;-82
2021/11/18 04:28:14;;;;;;;27.52;18.35;;;8.80;99.90;;;;;;4921325;29;20077;-81
2021/11/18 04:31:01;;;;;;;25.60;16.38;;;8.90;99.90;;;;;;4952716;29;20102;-83
2021/11/18 04:33:30;;;;;;;28.17;17.20;;;8.80;99.90;;;;;;4953054;29;20042;-81
2021/11/18 04:35:58;;;;;;;27.27;16.83;;;8.80;99.90;;;;;;4952793;29;20050;-79
2021/11/18 04:38:26;;;;;;;25.80;17.83;;;8.80;99.90;;;;;;4953177;29;20043;-79
2021/11/18 04:40:54;;;;;;;23.35;16.52;;;8.90;99.90;;;;;;4953750;29;20658;-81
2021/11/18 04:43:23;;;;;;;27.17;16.95;;;8.80;99.90;;;;;;4953455;29;20529;-78
2021/11/18 04:45:51;;;;;;;27.33;17.80;;;8.90;99.90;;;;;;4953763;29;20043;-78
2021/11/18 04:48:18;;;;;;;32.65;17.67;;;8.70;99.90;;;;;;4953568;29;20055;-77
2021/11/18 04:50:46;;;;;;;28.25;18.23;;;8.70;99.90;;;;;;4953590;29;20122;-78
2021/11/18 04:53:14;;;;;;;27.17;18.80;;;8.80;99.90;;;;;;4953330;29;20062;-78
2021/11/18 04:55:43;;;;;;;28.70;16.88;;;8.80;99.90;;;;;;4953596;29;20040;-77
2021/11/18 04:58:11;;;;;;;30.15;17.95;;;8.70;99.90;;;;;;4953412;29;20074;-79
2021/11/18 05:00:44;;;;;;;30.58;18.20;;;8.90;99.90;;;;;;4936890;29;20035;-79
2021/11/18 05:03:13;;;;;;;26.17;18.08;;;8.90;99.90;;;;;;4953304;29;20043;-79
2021/11/18 05:05:41;;;;;;;30.25;16.42;;;8.90;99.90;;;;;;4953699;29;20127;-81
2021/11/18 05:08:08;;;;;;;25.90;17.52;;;8.90;99.90;;;;;;4953743;28;20410;-79
2021/11/18 05:10:36;;;;;;;31.25;18.50;;;8.90;99.90;;;;;;4957301;29;20039;-79
2021/11/18 05:13:04;;;;;;;32.50;18.13;;;8.90;99.90;;;;;;4957095;29;20127;-80
2021/11/18 05:15:35;;;;;;;29.17;17.90;;;9.00;99.90;;;;;;4957325;29;20050;-80
2021/11/18 05:18:05;;;;;;;27.15;17.65;;;8.90;99.90;;;;;;4956961;29;20051;-79
2021/11/18 05:20:33;;;;;;;27.67;17.83;;;8.90;99.90;;;;;;4956895;28;20523;-80
2021/11/18 05:23:01;;;;;;;28.65;16.63;;;8.70;99.90;;;;;;4957117;29;20043;-79
2021/11/18 05:25:31;;;;;;;26.45;16.98;;;8.70;99.90;;;;;;4957213;29;20415;-80
2021/11/18 05:28:00;;;;;;;24.25;16.75;;;8.60;99.90;;;;;;4957150;29;20134;-77
2021/11/18 05:30:28;;;;;;;25.80;18.25;;;8.70;99.90;;;;;;4956816;29;20058;-80
2021/11/18 05:32:57;;;;;;;25.65;15.75;;;8.70;99.90;;;;;;4956837;29;20090;-80
2021/11/18 05:35:27;;;;;;;23.55;16.50;;;8.80;99.90;;;;;;4956899;29;20063;-80
2021/11/18 05:37:55;;;;;;;26.65;16.58;;;8.80;99.90;;;;;;4956538;29;20134;-82
2021/11/18 05:40:23;;;;;;;25.77;16.63;;;8.90;99.90;;;;;;4946236;29;20135;-81
2021/11/18 05:42:51;;;;;;;26.20;16.38;;;8.80;99.90;;;;;;4956953;29;20047;-80
2021/11/18 05:45:23;;;;;;;24.10;16.73;;;8.80;99.90;;;;;;4955515;29;20118;-80
2021/11/18 05:47:51;;;;;;;28.30;16.77;;;8.80;99.90;;;;;;4955465;29;20059;-83
2021/11/18 05:50:22;;;;;;;27.38;16.35;;;8.90;99.90;;;;;;4955784;29;20118;-81
2021/11/18 05:52:49;;;;;;;30.30;18.15;;;9.00;99.90;;;;;;4955776;29;20051;-80
2021/11/18 05:55:20;;;;;;;28.75;17.67;;;9.00;99.90;;;;;;4956373;29;20464;-81
2021/11/18 05:57:48;;;;;;;29.35;17.13;;;9.00;99.90;;;;;;4955692;29;20039;-83
2021/11/18 06:00:19;;;;;;;28.08;17.85;;;9.00;99.90;;;;;;4955539;29;20051;-83
2021/11/18 06:02:47;;;;;;;37.95;23.38;;;9.00;99.90;;;;;;4955576;29;20062;-82
2021/11/18 06:05:15;;;;;;;90.47;49.58;;;9.20;99.90;;;;;;4956502;29;20066;-80
2021/11/18 06:07:42;;;;;;;51.35;32.35;;;9.40;99.90;;;;;;4954600;28;20066;-83
2021/11/18 06:10:13;;;;;;;62.17;35.90;;;9.70;99.90;;;;;;4962128;28;20043;-86
2021/11/18 06:12:41;;;;;;;99.50;54.30;;;9.80;99.90;;;;;;4939288;29;20107;-81
2021/11/18 06:15:09;;;;;;;77.88;42.80;;;10.20;99.90;;;;;;4939294;29;20130;-83
2021/11/18 06:17:37;;;;;;;50.53;31.13;;;10.00;99.90;;;;;;4956075;29;20078;-82
2021/11/18 06:20:07;;;;;;;35.78;20.90;;;9.80;99.90;;;;;;4938546;29;20495;-80
2021/11/18 06:22:34;;;;;;;30.42;20.17;;;9.60;99.90;;;;;;4954257;29;20121;-82
2021/11/18 06:25:04;;;;;;;28.27;17.85;;;9.40;99.90;;;;;;4955590;29;20062;-82
2021/11/18 06:27:31;;;;;;;37.05;20.00;;;9.30;99.90;;;;;;4955054;29;20051;-81
2021/11/18 06:29:59;;;;;;;27.25;19.23;;;9.30;99.90;;;;;;4938292;29;20047;-83
2021/11/18 06:32:28;;;;;;;28.75;20.13;;;9.10;99.90;;;;;;4922633;29;20078;-84
2021/11/18 06:34:57;;;;;;;30.80;20.48;;;9.10;99.90;;;;;;4938496;29;20051;-83
2021/11/18 06:37:24;;;;;;;37.60;24.05;;;9.10;99.90;;;;;;4938389;29;20143;-81
2021/11/18 06:39:55;;;;;;;37.63;22.52;;;9.10;99.90;;;;;;4934296;29;20134;-84
2021/11/18 06:42:22;;;;;;;35.70;23.00;;;9.10;99.90;;;;;;4967685;28;20055;-82
2021/11/18 06:44:49;;;;;;;38.47;23.55;;;9.20;99.90;;;;;;4956023;29;20173;-81
2021/11/18 06:47:17;;;;;;;35.58;22.80;;;9.20;99.90;;;;;;4970291;28;20082;-84
2021/11/18 06:49:44;;;;;;;39.40;24.00;;;9.20;99.90;;;;;;4954884;29;20392;-86
2021/11/18 06:52:12;;;;;;;45.85;24.25;;;9.40;99.90;;;;;;4954617;28;20054;-82
2021/11/18 06:54:39;;;;;;;37.78;24.05;;;9.40;99.90;;;;;;4938427;29;20039;-81
2021/11/18 06:57:07;;;;;;;37.80;21.98;;;9.50;99.90;;;;;;4967833;28;20043;-83
2021/11/18 06:59:35;;;;;;;35.30;21.38;;;9.50;99.90;;;;;;4954144;29;20054;-82
2021/11/18 07:02:03;;;;;;;33.22;22.88;;;9.60;99.90;;;;;;4953057;29;20039;-81
2021/11/18 07:04:32;;;;;;;38.17;21.67;;;9.60;99.90;;;;;;4929328;29;20051;-83
2021/11/18 07:07:57;;;;;;;34.70;22.42;;;9.70;99.90;;;;;;4953206;29;20130;-83
2021/11/18 07:11:38;;;;;;;37.28;24.45;;;9.70;99.90;;;;;;4921648;29;20075;-81
2021/11/18 07:15:04;;;;;;;35.03;21.27;;;9.80;99.90;;;;;;4947126;28;20129;-82
2021/11/18 07:17:34;;;;;;;30.73;20.92;;;9.90;99.90;;;;;;4938046;28;20057;-83
2021/11/18 07:20:03;;;;;;;31.30;20.48;;;9.70;99.90;;;;;;4970283;28;20149;-84
2021/11/18 07:22:30;;;;;;;30.65;21.38;;;9.80;99.90;;;;;;4970187;28;20151;-82
2021/11/18 07:24:59;;;;;;;31.58;20.77;;;9.80;99.90;;;;;;4971433;28;20097;-83
2021/11/18 07:27:26;;;;;;;27.58;20.42;;;9.80;99.90;;;;;;4971025;28;20094;-80
2021/11/18 07:29:54;;;;;;;35.70;21.83;;;9.70;99.90;;;;;;4971360;28;20063;-83
2021/11/18 07:32:21;;;;;;;31.40;21.33;;;9.80;99.90;;;;;;4955188;28;20055;-82
2021/11/18 07:34:51;;;;;;;31.40;20.80;;;9.80;99.90;;;;;;4955256;28;20494;-83
2021/11/18 07:37:18;;;;;;;29.00;20.42;;;9.90;99.90;;;;;;4955420;28;20047;-82
2021/11/18 07:39:46;;;;;;;33.33;21.02;;;9.80;99.90;;;;;;4954845;28;20055;-83
2021/11/18 07:42:13;;;;;;;32.45;22.02;;;9.80;99.90;;;;;;4954335;29;20121;-81
2021/11/18 07:44:40;;;;;;;31.73;20.20;;;9.80;99.90;;;;;;4937765;29;20463;-83
2021/11/18 07:47:08;;;;;;;31.75;20.95;;;9.90;99.90;;;;;;4937059;29;20574;-82
2021/11/18 07:49:36;;;;;;;29.60;21.00;;;9.90;99.90;;;;;;4936919;29;20058;-83
2021/11/18 07:52:03;;;;;;;34.78;21.08;;;10.00;99.90;;;;;;4954517;29;20035;-83
2021/11/18 07:54:31;;;;;;;34.30;20.17;;;10.20;99.90;;;;;;4952832;29;20081;-82
2021/11/18 07:56:58;;;;;;;36.08;21.63;;;10.30;99.90;;;;;;4936701;29;20047;-83
2021/11/18 07:59:27;;;;;;;36.50;22.08;;;10.50;99.90;;;;;;4936708;29;20471;-84
2021/11/18 08:02:09;;;;;;;30.50;20.98;;;10.40;99.90;;;;;;4936145;29;20086;-83
2021/11/18 08:04:36;;;;;;;33.38;21.27;;;10.40;99.90;;;;;;4936448;29;20424;-81
2021/11/18 08:07:04;;;;;;;33.47;21.23;;;10.50;99.90;;;;;;4953181;29;20035;-79
2021/11/18 08:09:31;;;;;;;32.08;21.08;;;10.50;99.90;;;;;;4936479;29;20051;-81
2021/11/18 08:12:00;;;;;;;33.70;21.30;;;10.50;99.90;;;;;;4950464;29;20036;-83
2021/11/18 08:14:28;;;;;;;35.63;22.65;;;10.50;99.90;;;;;;4936683;29;20371;-83
2021/11/18 08:16:56;;;;;;;41.35;24.20;;;10.50;99.90;;;;;;4920929;29;20350;-80
2021/11/18 08:19:24;;;;;;;37.83;23.63;;;10.60;99.90;;;;;;4936783;29;20051;-79
2021/11/18 08:21:53;;;;;;;36.97;22.95;;;10.70;99.90;;;;;;4953500;28;20044;-82
2021/11/18 08:24:22;;;;;;;41.30;24.35;;;10.70;99.90;;;;;;4936440;29;20475;-81
2021/11/18 08:26:50;;;;;;;40.08;24.60;;;10.60;99.90;;;;;;4953891;29;20062;-85
2021/11/18 08:29:21;;;;;;;41.75;25.15;;;10.70;99.90;;;;;;4936806;29;20043;-81
2021/11/18 08:31:50;;;;;;;38.80;25.30;;;10.90;99.90;;;;;;4953595;29;20039;-83
2021/11/18 08:34:19;;;;;;;34.05;23.38;;;10.90;99.90;;;;;;4937545;29;20051;-82
2021/11/18 08:36:48;;;;;;;37.05;23.85;;;11.00;99.90;;;;;;4936606;29;20050;-81
2021/11/18 08:39:20;;;;;;;38.13;22.85;;;11.10;99.90;;;;;;4954274;29;20050;-84
2021/11/18 08:41:50;;;;;;;37.38;23.52;;;11.40;99.90;;;;;;4912773;29;20052;-81
2021/11/18 08:44:18;;;;;;;35.70;22.52;;;11.20;99.90;;;;;;4934303;29;20127;-84
2021/11/18 08:46:47;;;;;;;36.70;24.33;;;11.40;99.90;;;;;;4920666;29;20399;-86
2021/11/18 08:49:18;;;;;;;42.03;24.08;;;11.80;99.90;;;;;;4934446;29;20047;-85
2021/11/18 08:51:46;;;;;;;39.58;23.80;;;12.00;99.90;;;;;;4949549;29;20050;-83
2021/11/18 08:54:21;;;;;;;39.10;24.20;;;12.20;99.90;;;;;;4934993;29;20114;-82
2021/11/18 08:56:52;;;;;;;39.30;23.35;;;12.20;99.90;;;;;;4934537;29;20385;-82
2021/11/18 08:59:22;;;;;;;39.63;24.48;;;12.40;99.90;;;;;;4949312;29;20040;-83
2021/11/18 09:01:56;;;;;;;40.33;24.37;;;12.40;99.90;;;;;;4949545;29;20146;-84
2021/11/18 09:04:26;;;;;;;43.33;25.20;;;12.50;99.90;;;;;;4933929;29;20286;-83
2021/11/18 09:06:54;;;;;;;40.55;27.38;;;12.70;99.90;;;;;;4933788;29;20142;-83
2021/11/18 09:09:25;;;;;;;41.15;25.17;;;12.70;99.90;;;;;;4949705;29;20043;-84
2021/11/18 09:12:07;;;;;;;43.75;26.23;;;12.60;99.90;;;;;;4947291;29;20063;-86
2021/11/18 09:14:36;;;;;;;44.22;25.40;;;12.40;99.90;;;;;;4917981;29;20040;-83
2021/11/18 09:17:06;;;;;;;36.88;24.10;;;12.30;99.90;;;;;;4934618;29;20043;-83
2021/11/18 09:19:36;;;;;;;43.83;24.25;;;12.40;99.90;;;;;;4918154;29;20496;-83
2021/11/18 09:22:07;;;;;;;43.58;24.98;;;12.40;99.90;;;;;;4948514;29;20123;-85
2021/11/18 09:24:40;;;;;;;41.78;24.83;;;12.40;99.90;;;;;;4933226;29;20044;-79
2021/11/18 09:40:32;;;;;;;43.15;25.33;;;12.90;99.90;;;;;;6246673;22;1405681;-83
2021/11/18 09:43:08;;;;;;;38.00;23.67;;;13.00;99.90;;;;;;6250198;23;20027;-83
2021/11/18 09:46:13;;;;;;;40.08;24.55;;;13.10;99.90;;;;;;6242711;22;20016;-87
2021/11/18 09:49:28;;;;;;;39.60;24.50;;;13.00;99.90;;;;;;6112821;23;20017;-82
2021/11/18 09:52:32;;;;;;;40.67;25.50;;;12.70;99.90;;;;;;6162854;23;20022;-84
2021/11/18 09:55:25;;;;;;;43.13;24.10;;;12.50;99.90;;;;;;6118532;23;20395;-82
2021/11/18 09:58:05;;;;;;;44.40;25.98;;;12.50;99.90;;;;;;6161796;23;20121;-86
2021/11/18 10:00:39;;;;;;;44.45;25.20;;;12.50;99.90;;;;;;6161291;23;20013;-80
2021/11/18 10:03:15;;;;;;;41.53;24.92;;;12.30;99.90;;;;;;6162074;23;20041;-76
2021/11/18 10:05:58;;;;;;;40.20;25.33;;;12.30;99.90;;;;;;6161003;23;20040;-80
2021/11/18 10:08:46;;;;;;;42.63;24.80;;;12.30;99.90;;;;;;6161413;23;20013;-80
2021/11/18 10:11:47;;;;;;;39.40;24.40;;;12.30;99.90;;;;;;6162191;23;20044;-78
2021/11/18 10:14:24;;;;;;;38.85;24.30;;;12.40;99.90;;;;;;6082726;23;20019;-79
2021/11/18 10:17:16;;;;;;;39.25;23.45;;;12.50;99.90;;;;;;6162356;23;20013;-81
2021/11/18 10:20:15;;;;;;;37.00;22.95;;;12.40;99.90;;;;;;6161507;23;20021;-79
2021/11/18 10:22:52;;;;;;;33.05;21.30;;;12.30;99.90;;;;;;6142037;23;20273;-79
2021/11/18 10:25:34;;;;;;;32.10;21.55;;;12.30;99.90;;;;;;6161279;23;20084;-79
2021/11/18 10:28:22;;;;;;;32.28;21.38;;;12.30;99.90;;;;;;6134918;23;20018;-80
2021/11/18 10:30:54;;;;;;;38.08;20.83;;;12.30;99.90;;;;;;6160364;23;20041;-80
2021/11/18 10:33:27;;;;;;;33.75;20.73;;;12.20;99.90;;;;;;6160581;23;20363;-81
2021/11/18 10:36:13;;;;;;;31.13;19.35;;;12.20;99.90;;;;;;6135461;23;20013;-81
2021/11/18 10:39:03;;;;;;;30.08;18.92;;;12.30;99.90;;;;;;6154397;23;20021;-80
2021/11/18 10:41:33;;;;;;;30.73;17.17;;;12.30;99.90;;;;;;6082376;23;20017;-80
2021/11/18 10:44:17;;;;;;;28.73;18.33;;;12.30;99.90;;;;;;6154546;23;20068;-82
2021/11/18 10:47:08;;;;;;;29.33;17.98;;;12.30;99.90;;;;;;6155311;23;20013;-81
2021/11/18 10:50:10;;;;;;;25.38;17.85;;;12.30;99.90;;;;;;6178108;23;20013;-81
2021/11/18 10:52:46;;;;;;;29.20;16.73;;;12.20;99.90;;;;;;6101297;23;20088;-80
2021/11/18 10:55:16;;;;;;;26.27;16.08;;;12.20;99.90;;;;;;6153700;23;20009;-81
2021/11/18 10:58:01;;;;;;;21.45;15.10;;;12.20;99.90;;;;;;6153901;23;20021;-81
2021/11/18 11:00:40;;;;;;;23.85;15.32;;;12.20;99.90;;;;;;6177803;23;20022;-81
2021/11/18 11:03:22;;;;;;;22.58;15.65;;;12.20;99.90;;;;;;6153721;23;20018;-83
2021/11/18 11:06:08;;;;;;;28.73;17.48;;;12.20;99.90;;;;;;6153450;23;20022;-83
2021/11/18 11:08:38;;;;;;;24.88;17.48;;;12.20;99.90;;;;;;6153523;23;20021;-85
2021/11/18 11:11:39;;;;;;;29.13;17.40;;;12.10;99.90;;;;;;6152527;23;20095;-82
2021/11/18 11:14:27;;;;;;;25.85;17.67;;;12.10;99.90;;;;;;6134798;23;20030;-81
2021/11/18 11:17:28;;;;;;;28.50;18.83;;;12.10;99.90;;;;;;6153721;23;20018;-81
2021/11/18 11:20:46;;;;;;;29.77;17.58;;;12.10;99.90;;;;;;6154406;23;20337;-84
2021/11/18 11:23:18;;;;;;;26.52;16.27;;;12.20;99.90;;;;;;6012139;23;20039;-82
2021/11/18 11:26:10;;;;;;;28.90;17.70;;;12.10;99.90;;;;;;6135684;23;20018;-81
2021/11/18 11:29:01;;;;;;;28.50;17.35;;;12.20;99.90;;;;;;6153758;23;20088;-79
2021/11/18 11:32:06;;;;;;;25.95;17.75;;;12.20;99.90;;;;;;6151917;23;20092;-81
2021/11/18 11:34:57;;;;;;;25.67;16.63;;;12.30;99.90;;;;;;6153192;23;20029;-80
2021/11/18 11:37:54;;;;;;;28.45;18.42;;;12.20;99.90;;;;;;6177919;23;20080;-82
2021/11/18 11:40:31;;;;;;;27.17;17.27;;;12.20;99.90;;;;;;6177260;23;20013;-78
2021/11/18 11:43:14;;;;;;;33.22;19.13;;;12.20;99.90;;;;;;6152784;23;20025;-79
2021/11/18 11:46:06;;;;;;;28.20;17.65;;;12.10;99.90;;;;;;6152908;23;20335;-82
2021/11/18 11:49:01;;;;;;;29.05;18.02;;;12.10;99.90;;;;;;6176761;23;20064;-85
2021/11/18 11:51:37;;;;;;;34.53;19.48;;;12.00;99.90;;;;;;6154174;23;20013;-80
2021/11/18 11:54:19;;;;;;;31.95;18.75;;;12.00;99.90;;;;;;6154282;23;20401;-80
2021/11/18 11:56:51;;;;;;;28.30;17.70;;;12.00;99.90;;;;;;6154290;23;20041;-82
2021/11/18 11:59:26;;;;;;;31.25;18.95;;;12.00;99.90;;;;;;6152712;23;20021;-80
2021/11/18 12:02:07;;;;;;;33.38;18.30;;;12.00;99.90;;;;;;6154766;23;20257;-79
2021/11/18 12:04:45;;;;;;;33.40;18.83;;;12.00;99.90;;;;;;6154401;23;20313;-81
2021/11/18 12:07:40;;;;;;;33.25;19.25;;;12.10;99.90;;;;;;6154310;23;20037;-83
2021/11/18 12:10:32;;;;;;;34.72;18.83;;;12.60;99.90;;;;;;6152699;23;20024;-84
2021/11/18 12:13:41;;;;;;;32.72;18.88;;;12.40;99.90;;;;;;6152567;23;20025;-83
2021/11/18 12:16:50;;;;;;;34.78;18.80;;;12.50;99.90;;;;;;6154165;23;20399;-83
2021/11/18 12:19:27;;;;;;;27.40;17.92;;;12.60;99.90;;;;;;6034559;23;20075;-80
2021/11/18 12:21:54;;;;;;;30.65;18.48;;;12.70;99.90;;;;;;6034902;23;20078;-81
2021/11/18 12:24:25;;;;;;;32.47;19.77;;;12.70;99.90;;;;;;6088682;23;20013;-82
2021/11/18 12:27:07;;;;;;;29.45;18.58;;;12.80;99.90;;;;;;6154611;23;20014;-82
2021/11/18 12:29:44;;;;;;;29.55;19.02;;;12.80;99.90;;;;;;6154303;23;20084;-82
2021/11/18 12:32:22;;;;;;;30.75;18.67;;;12.80;99.90;;;;;;6155157;23;20080;-78
2021/11/18 12:35:06;;;;;;;37.13;18.15;;;12.80;99.90;;;;;;6154735;23;20388;-78
2021/11/18 12:37:51;;;;;;;33.58;18.00;;;12.60;99.90;;;;;;6177483;23;20026;-78
2021/11/18 12:41:00;;;;;;;30.30;18.23;;;12.70;99.90;;;;;;6154973;23;20009;-78
2021/11/18 12:43:52;;;;;;;28.83;17.98;;;12.60;99.90;;;;;;6154402;23;20080;-82
2021/11/18 12:46:23;;;;;;;29.70;18.67;;;12.70;99.90;;;;;;6153881;23;20009;-76
2021/11/18 12:48:56;;;;;;;32.30;17.95;;;12.80;99.90;;;;;;6152678;23;20100;-81
2021/11/18 12:51:43;;;;;;;29.55;18.27;;;12.80;99.90;;;;;;6154477;23;20442;-84
2021/11/18 12:54:13;;;;;;;28.95;17.85;;;12.90;99.90;;;;;;6154597;23;20092;-81
2021/11/18 12:56:52;;;;;;;30.70;18.33;;;13.00;99.90;;;;;;6154515;23;20036;-81
2021/11/18 12:59:42;;;;;;;29.65;18.85;;;12.90;99.90;;;;;;6177620;23;20088;-84
2021/11/18 13:02:37;;;;;;;33.58;19.52;;;12.70;99.90;;;;;;6135205;23;20364;-83
2021/11/18 13:05:11;;;;;;;31.67;20.40;;;12.50;99.90;;;;;;6154039;23;20021;-83
2021/11/18 13:07:41;;;;;;;36.42;21.00;;;12.30;99.90;;;;;;6152348;23;20025;-82
2021/11/18 13:10:32;;;;;;;34.38;20.00;;;12.20;99.90;;;;;;6152965;23;20080;-82
2021/11/18 13:13:02;;;;;;;31.33;19.25;;;12.20;99.90;;;;;;6153721;23;20408;-80
2021/11/18 13:15:45;;;;;;;34.90;18.95;;;12.20;99.90;;;;;;6153231;23;20013;-82
2021/11/18 13:18:30;;;;;;;35.75;20.10;;;12.10;99.90;;;;;;6177283;23;20017;-83
2021/11/18 13:21:20;;;;;;;33.58;20.20;;;12.10;99.90;;;;;;6153762;23;20089;-82